Time;durP1;ratioP1;P1;durP2;ratioP2;P2;SDS_P1;SDS_P2;PMS_P1;PMS_P2;Temp;Humidity;BMP_temperature;BMP_pressure;BME280_temperature;BME280_humidity;BME280_pressure;Samples;Min_cycle;Max_cycle;Signal;HPM_P1;HPM_P2
2023/03/19 00:01:45;;;;;;;26.20;5.05;;;;;;;;;;5012350;28;20080;-71
2023/03/19 00:04:12;;;;;;;27.10;5.35;;;;;;;;;;5013845;28;20041;-72
2023/03/19 00:06:38;;;;;;;33.90;6.90;;;;;;;;;;5013789;28;20021;-71
2023/03/19 00:09:04;;;;;;;18.60;4.75;;;;;;;;;;5012839;28;20029;-71
2023/03/19 00:11:32;;;;;;;25.85;5.25;;;;;;;;;;5013978;28;20033;-71
2023/03/19 00:13:58;;;;;;;26.65;4.88;;;;;;;;;;5013077;28;20096;-71
2023/03/19 00:16:24;;;;;;;30.20;6.35;;;;;;;;;;5013453;28;20486;-72
2023/03/19 00:18:50;;;;;;;28.08;6.05;;;;;;;;;;5013576;28;20113;-70
2023/03/19 00:21:16;;;;;;;23.95;5.07;;;;;;;;;;5013594;28;20487;-71
2023/03/19 00:23:42;;;;;;;30.20;4.95;;;;;;;;;;5013655;28;20121;-71
2023/03/19 00:26:08;;;;;;;27.15;5.07;;;;;;;;;;5012791;28;20037;-71
2023/03/19 00:28:36;;;;;;;34.67;5.50;;;;;;;;;;5013653;28;20030;-72
2023/03/19 00:31:12;;;;;;;38.35;5.05;;;;;;;;;;5012142;28;20029;-71
2023/03/19 00:33:39;;;;;;;26.40;6.32;;;;;;;;;;5013548;28;20064;-72
2023/03/19 00:36:06;;;;;;;27.75;5.32;;;;;;;;;;5013409;28;20080;-71
2023/03/19 00:38:34;;;;;;;30.98;5.13;;;;;;;;;;5012006;28;20493;-72
2023/03/19 00:41:00;;;;;;;28.13;5.35;;;;;;;;;;5012336;28;20026;-70
2023/03/19 00:43:27;;;;;;;20.67;5.47;;;;;;;;;;5013054;28;20483;-71
2023/03/19 00:45:53;;;;;;;31.48;5.45;;;;;;;;;;5013088;28;20033;-72
2023/03/19 00:48:20;;;;;;;19.35;5.15;;;;;;;;;;5013304;28;20025;-71
2023/03/19 00:50:46;;;;;;;28.33;5.05;;;;;;;;;;5012986;28;20398;-72
2023/03/19 00:53:12;;;;;;;29.20;5.47;;;;;;;;;;5012941;28;20026;-71
2023/03/19 00:55:39;;;;;;;25.75;4.55;;;;;;;;;;5013050;28;20030;-69
2023/03/19 00:58:09;;;;;;;23.67;4.15;;;;;;;;;;5012020;28;20418;-71
2023/03/19 01:00:35;;;;;;;21.70;4.15;;;;;;;;;;5012975;28;20069;-71
2023/03/19 01:03:02;;;;;;;25.15;4.40;;;;;;;;;;5012492;28;20056;-71
2023/03/19 01:05:29;;;;;;;16.48;4.07;;;;;;;;;;5011443;28;20044;-71
2023/03/19 01:07:55;;;;;;;20.42;4.15;;;;;;;;;;5013177;28;20109;-71
2023/03/19 01:10:22;;;;;;;29.92;5.38;;;;;;;;;;5012744;28;20025;-70
2023/03/19 01:12:48;;;;;;;29.42;5.88;;;;;;;;;;5012376;28;20022;-70
2023/03/19 01:15:14;;;;;;;28.95;5.43;;;;;;;;;;5011929;28;20033;-71
2023/03/19 01:17:41;;;;;;;23.67;3.78;;;;;;;;;;5011150;28;20482;-72
2023/03/19 01:20:11;;;;;;;19.67;3.85;;;;;;;;;;5011392;28;20077;-72
2023/03/19 01:22:39;;;;;;;21.52;3.72;;;;;;;;;;5012463;28;20034;-72
2023/03/19 01:25:06;;;;;;;21.55;5.25;;;;;;;;;;5011716;28;20034;-71
2023/03/19 01:27:32;;;;;;;21.98;4.32;;;;;;;;;;5012059;28;20056;-71
2023/03/19 01:29:58;;;;;;;24.20;4.93;;;;;;;;;;5012361;28;20029;-71
2023/03/19 01:32:24;;;;;;;31.85;4.13;;;;;;;;;;5012390;28;20026;-72
2023/03/19 01:34:51;;;;;;;28.17;4.88;;;;;;;;;;5011338;28;20034;-71
2023/03/19 01:37:17;;;;;;;23.83;3.70;;;;;;;;;;5012316;28;20050;-71
2023/03/19 01:39:44;;;;;;;28.70;4.35;;;;;;;;;;5012020;28;20120;-72
2023/03/19 01:42:10;;;;;;;23.65;4.78;;;;;;;;;;5012093;28;20025;-71
2023/03/19 01:44:37;;;;;;;24.67;4.22;;;;;;;;;;5012171;28;20038;-71
2023/03/19 01:47:13;;;;;;;26.50;5.65;;;;;;;;;;5011940;28;20026;-72
2023/03/19 01:49:40;;;;;;;22.35;5.18;;;;;;;;;;5011182;28;20026;-70
2023/03/19 01:52:07;;;;;;;25.20;4.10;;;;;;;;;;5012145;28;20061;-71
2023/03/19 01:54:34;;;;;;;21.73;4.43;;;;;;;;;;5011788;28;20034;-71
2023/03/19 01:57:02;;;;;;;27.23;5.05;;;;;;;;;;5011999;28;20096;-71
2023/03/19 01:59:30;;;;;;;29.30;4.22;;;;;;;;;;5011636;28;20017;-71
2023/03/19 02:01:56;;;;;;;25.67;4.03;;;;;;;;;;5011694;28;20057;-70
2023/03/19 02:04:24;;;;;;;15.70;3.90;;;;;;;;;;5011909;28;20033;-71
2023/03/19 02:06:50;;;;;;;23.38;4.03;;;;;;;;;;5010934;28;20026;-72
2023/03/19 02:09:17;;;;;;;15.02;4.57;;;;;;;;;;5011756;28;20032;-71
2023/03/19 02:11:43;;;;;;;35.80;6.07;;;;;;;;;;5011634;28;20060;-72
2023/03/19 02:14:11;;;;;;;19.50;4.15;;;;;;;;;;5010643;28;20064;-73
2023/03/19 02:16:37;;;;;;;24.77;4.97;;;;;;;;;;5011808;28;20474;-72
2023/03/19 02:19:04;;;;;;;26.48;4.43;;;;;;;;;;5011494;28;20463;-70
2023/03/19 02:21:30;;;;;;;28.38;4.85;;;;;;;;;;5010529;28;20394;-72
2023/03/19 02:24:12;;;;;;;24.00;5.47;;;;;;;;;;5010478;28;20042;-71
2023/03/19 02:26:39;;;;;;;30.23;7.93;;;;;;;;;;5011481;28;20054;-71
2023/03/19 02:29:05;;;;;;;29.42;5.22;;;;;;;;;;5011547;28;20029;-71
2023/03/19 02:31:31;;;;;;;25.08;5.75;;;;;;;;;;5011542;28;20034;-70
2023/03/19 02:34:01;;;;;;;23.83;5.80;;;;;;;;;;5011405;28;20022;-67
2023/03/19 02:36:33;;;;;;;27.48;5.68;;;;;;;;;;5011956;28;20029;-66
2023/03/19 02:39:02;;;;;;;28.30;6.70;;;;;;;;;;5017866;28;20072;-66
2023/03/19 02:41:29;;;;;;;25.63;6.32;;;;;;;;;;5017253;28;20033;-65
2023/03/19 02:43:55;;;;;;;23.70;5.35;;;;;;;;;;5017844;28;20029;-65
2023/03/19 02:46:21;;;;;;;23.98;6.90;;;;;;;;;;5017938;28;20030;-64
2023/03/19 02:48:48;;;;;;;26.23;5.63;;;;;;;;;;5017863;28;20026;-65
2023/03/19 02:51:14;;;;;;;34.35;6.88;;;;;;;;;;5018050;28;20022;-69
2023/03/19 02:53:40;;;;;;;25.45;5.15;;;;;;;;;;5018403;28;20038;-74
2023/03/19 02:56:06;;;;;;;24.38;6.07;;;;;;;;;;5017900;28;20025;-72
2023/03/19 02:58:32;;;;;;;20.65;6.22;;;;;;;;;;5016942;28;20037;-70
2023/03/19 03:00:58;;;;;;;17.98;6.47;;;;;;;;;;5017662;28;20402;-69
2023/03/19 03:03:25;;;;;;;23.85;6.55;;;;;;;;;;5016277;28;20390;-72
2023/03/19 03:05:51;;;;;;;21.60;6.10;;;;;;;;;;5017989;28;20030;-76
2023/03/19 03:08:17;;;;;;;25.25;8.30;;;;;;;;;;5018006;28;20713;-77
2023/03/19 03:10:43;;;;;;;24.27;7.93;;;;;;;;;;5017876;28;20156;-73
2023/03/19 03:13:09;;;;;;;8.82;4.80;;;;;;;;;;5017465;28;20033;-71
2023/03/19 03:15:35;;;;;;;4.50;2.70;;;;;;;;;;5016873;28;20032;-70
2023/03/19 03:18:01;;;;;;;4.65;2.90;;;;;;;;;;5017694;28;20022;-70
2023/03/19 03:20:28;;;;;;;7.57;2.67;;;;;;;;;;5017511;28;20048;-70
2023/03/19 03:22:54;;;;;;;4.35;2.22;;;;;;;;;;5017719;28;20099;-68
2023/03/19 03:25:21;;;;;;;5.90;2.85;;;;;;;;;;5017581;28;20026;-68
2023/03/19 03:27:47;;;;;;;4.28;2.60;;;;;;;;;;5017601;28;20034;-68
2023/03/19 03:30:15;;;;;;;3.20;2.53;;;;;;;;;;5016250;28;20506;-68
2023/03/19 03:32:41;;;;;;;5.00;3.13;;;;;;;;;;5016472;28;20536;-68
2023/03/19 03:35:08;;;;;;;6.82;2.95;;;;;;;;;;5017412;28;20697;-66
2023/03/19 03:37:34;;;;;;;4.82;3.40;;;;;;;;;;5017521;28;20022;-66
2023/03/19 03:40:02;;;;;;;10.35;3.70;;;;;;;;;;5017247;28;20101;-67
2023/03/19 03:42:28;;;;;;;6.43;3.35;;;;;;;;;;5017156;28;20026;-66
2023/03/19 03:44:54;;;;;;;6.38;3.05;;;;;;;;;;5017207;28;20025;-66
2023/03/19 03:47:21;;;;;;;4.22;2.92;;;;;;;;;;5016684;28;20026;-67
2023/03/19 03:49:47;;;;;;;3.75;2.50;;;;;;;;;;5013772;28;20030;-66
2023/03/19 03:52:13;;;;;;;5.03;2.47;;;;;;;;;;5014142;28;20022;-65
2023/03/19 03:54:39;;;;;;;4.25;2.63;;;;;;;;;;5014312;28;20028;-66
2023/03/19 03:57:06;;;;;;;5.55;2.65;;;;;;;;;;5014324;28;20378;-65
2023/03/19 03:59:32;;;;;;;4.47;3.17;;;;;;;;;;5014049;28;20017;-65
2023/03/19 04:01:59;;;;;;;5.85;3.03;;;;;;;;;;5013826;28;20450;-65
2023/03/19 04:04:25;;;;;;;7.35;2.95;;;;;;;;;;5013156;28;20427;-66
2023/03/19 04:06:51;;;;;;;4.28;3.17;;;;;;;;;;5014007;28;20022;-65
2023/03/19 04:09:17;;;;;;;5.32;2.92;;;;;;;;;;5011911;28;20080;-65
2023/03/19 04:11:43;;;;;;;5.00;3.05;;;;;;;;;;5013787;28;20021;-65
2023/03/19 04:14:09;;;;;;;5.70;3.10;;;;;;;;;;5013651;28;20026;-66
2023/03/19 04:16:35;;;;;;;4.88;2.55;;;;;;;;;;5013672;28;20029;-65
2023/03/19 04:19:01;;;;;;;6.05;2.70;;;;;;;;;;5013820;28;20435;-65
2023/03/19 04:21:28;;;;;;;7.93;2.75;;;;;;;;;;5013593;28;20041;-64
2023/03/19 04:23:54;;;;;;;7.60;2.78;;;;;;;;;;5013575;28;20033;-64
2023/03/19 04:26:20;;;;;;;3.75;3.17;;;;;;;;;;5012753;28;20022;-64
2023/03/19 04:28:46;;;;;;;8.80;3.00;;;;;;;;;;5013535;28;20034;-65
2023/03/19 04:31:12;;;;;;;9.23;2.25;;;;;;;;;;5013516;28;20033;-64
2023/03/19 04:33:39;;;;;;;6.50;2.85;;;;;;;;;;5013242;28;20029;-64
2023/03/19 04:36:05;;;;;;;10.35;3.15;;;;;;;;;;5013419;28;20030;-63
2023/03/19 04:38:31;;;;;;;5.65;2.50;;;;;;;;;;5012107;28;20498;-64
2023/03/19 04:40:57;;;;;;;4.28;2.35;;;;;;;;;;5012307;28;20029;-64
2023/03/19 04:43:24;;;;;;;8.57;2.20;;;;;;;;;;5012979;28;20053;-63
2023/03/19 04:45:50;;;;;;;4.80;1.85;;;;;;;;;;5013179;28;20052;-64
2023/03/19 04:48:17;;;;;;;5.93;2.15;;;;;;;;;;5013234;28;20033;-65
2023/03/19 04:50:44;;;;;;;5.60;2.03;;;;;;;;;;5013049;28;20026;-65
2023/03/19 04:53:10;;;;;;;5.68;2.22;;;;;;;;;;5013216;28;20080;-64
2023/03/19 04:55:36;;;;;;;5.03;2.28;;;;;;;;;;5013090;28;20076;-65
2023/03/19 04:58:03;;;;;;;7.75;2.63;;;;;;;;;;5012203;28;20049;-65
2023/03/19 05:00:29;;;;;;;7.97;2.53;;;;;;;;;;5012748;28;20075;-66
2023/03/19 05:02:56;;;;;;;6.45;2.47;;;;;;;;;;5013011;28;20516;-65
2023/03/19 05:05:22;;;;;;;4.20;2.45;;;;;;;;;;5011716;28;20127;-65
2023/03/19 05:07:48;;;;;;;8.85;2.67;;;;;;;;;;5012973;28;20018;-65
2023/03/19 05:10:14;;;;;;;3.30;2.03;;;;;;;;;;5012662;28;20041;-65
2023/03/19 05:12:40;;;;;;;8.57;2.55;;;;;;;;;;5011342;28;20022;-65
2023/03/19 05:15:06;;;;;;;3.80;2.40;;;;;;;;;;5010399;28;20041;-65
2023/03/19 05:17:34;;;;;;;6.38;2.58;;;;;;;;;;5012876;28;20026;-66
2023/03/19 05:20:01;;;;;;;8.73;2.35;;;;;;;;;;5012651;28;20086;-65
2023/03/19 05:22:27;;;;;;;5.75;2.28;;;;;;;;;;5012434;28;20028;-65
2023/03/19 05:24:53;;;;;;;8.55;2.47;;;;;;;;;;5012550;28;20036;-64
2023/03/19 05:27:19;;;;;;;7.53;2.65;;;;;;;;;;5012654;28;20438;-63
2023/03/19 05:29:45;;;;;;;8.95;2.58;;;;;;;;;;5011739;28;20030;-64
2023/03/19 05:32:12;;;;;;;7.32;2.55;;;;;;;;;;5012611;28;20026;-64
2023/03/19 05:34:38;;;;;;;6.03;3.00;;;;;;;;;;5012470;28;20105;-65
2023/03/19 05:37:04;;;;;;;7.57;2.28;;;;;;;;;;5012250;28;20030;-64
2023/03/19 05:39:30;;;;;;;7.13;2.90;;;;;;;;;;5011941;28;20030;-64
2023/03/19 05:41:56;;;;;;;8.30;2.55;;;;;;;;;;5012479;28;20490;-64
2023/03/19 05:44:22;;;;;;;5.82;3.33;;;;;;;;;;5011956;28;20042;-64
2023/03/19 05:46:48;;;;;;;8.65;2.58;;;;;;;;;;5011259;28;20462;-64
2023/03/19 05:49:14;;;;;;;5.15;2.00;;;;;;;;;;5012167;28;20101;-64
2023/03/19 05:51:40;;;;;;;3.63;1.65;;;;;;;;;;5012074;28;20050;-64
2023/03/19 05:54:06;;;;;;;9.15;1.80;;;;;;;;;;5011837;28;20026;-64
2023/03/19 05:56:32;;;;;;;8.30;1.80;;;;;;;;;;5011980;28;20030;-63
2023/03/19 05:58:58;;;;;;;6.40;2.10;;;;;;;;;;5010771;28;20488;-62
2023/03/19 06:01:24;;;;;;;8.82;2.25;;;;;;;;;;5011701;28;20044;-63
2023/03/19 06:03:50;;;;;;;9.57;2.25;;;;;;;;;;5011184;28;20038;-64
2023/03/19 06:06:16;;;;;;;4.38;1.58;;;;;;;;;;5011785;28;20028;-63
2023/03/19 06:08:42;;;;;;;4.80;1.30;;;;;;;;;;5011764;28;20048;-63
2023/03/19 06:11:09;;;;;;;9.13;1.70;;;;;;;;;;5011531;28;20036;-62
2023/03/19 06:13:35;;;;;;;8.10;2.17;;;;;;;;;;5010876;28;20036;-62
2023/03/19 06:16:01;;;;;;;6.32;1.52;;;;;;;;;;5011740;28;20021;-63
2023/03/19 06:18:27;;;;;;;3.17;1.88;;;;;;;;;;5007196;28;20022;-64
2023/03/19 06:20:53;;;;;;;5.22;1.60;;;;;;;;;;5008763;28;20037;-62
2023/03/19 06:23:19;;;;;;;2.92;1.15;;;;;;;;;;5011232;28;20593;-63
2023/03/19 06:25:45;;;;;;;3.10;1.60;;;;;;;;;;5011516;28;20065;-62
2023/03/19 06:28:11;;;;;;;10.60;1.95;;;;;;;;;;5011470;28;20025;-63
2023/03/19 06:30:37;;;;;;;5.43;1.50;;;;;;;;;;5011311;28;20479;-63
2023/03/19 06:33:04;;;;;;;5.85;1.30;;;;;;;;;;5011481;28;20040;-64
2023/03/19 06:35:30;;;;;;;4.95;1.70;;;;;;;;;;5011577;28;20096;-63
2023/03/19 06:37:56;;;;;;;10.32;1.73;;;;;;;;;;5010389;28;20375;-64
2023/03/19 06:40:22;;;;;;;5.88;1.40;;;;;;;;;;5011728;28;20022;-63
2023/03/19 06:42:48;;;;;;;5.18;1.58;;;;;;;;;;5011345;28;20034;-64
2023/03/19 06:45:17;;;;;;;4.20;1.55;;;;;;;;;;5011504;28;20022;-63
2023/03/19 06:47:43;;;;;;;5.93;1.40;;;;;;;;;;5011469;28;20019;-65
2023/03/19 06:50:13;;;;;;;4.90;1.65;;;;;;;;;;5010997;28;20117;-63
2023/03/19 06:52:40;;;;;;;9.73;1.60;;;;;;;;;;4999546;28;20033;-64
2023/03/19 06:55:07;;;;;;;6.93;1.75;;;;;;;;;;5011363;28;20171;-65
2023/03/19 06:57:33;;;;;;;3.80;1.50;;;;;;;;;;5011276;28;20479;-62
2023/03/19 06:59:59;;;;;;;4.20;1.55;;;;;;;;;;5011129;28;20037;-64
2023/03/19 07:02:26;;;;;;;9.40;1.63;;;;;;;;;;5003194;28;20388;-64
2023/03/19 07:04:52;;;;;;;3.40;1.40;;;;;;;;;;4991556;28;20053;-64
2023/03/19 07:07:18;;;;;;;9.93;1.80;;;;;;;;;;4991374;28;20709;-64
2023/03/19 07:09:44;;;;;;;3.78;2.05;;;;;;;;;;4994342;28;20044;-63
2023/03/19 07:12:10;;;;;;;10.80;2.08;;;;;;;;;;5011062;28;20622;-64
2023/03/19 07:14:36;;;;;;;6.18;1.50;;;;;;;;;;5011088;28;20026;-64
2023/03/19 07:17:02;;;;;;;2.92;1.40;;;;;;;;;;5010867;28;20087;-66
2023/03/19 07:19:28;;;;;;;9.35;2.00;;;;;;;;;;5010549;28;20026;-65
2023/03/19 07:21:54;;;;;;;7.95;1.75;;;;;;;;;;5004112;28;20499;-65
2023/03/19 07:24:20;;;;;;;4.63;1.65;;;;;;;;;;5024660;28;20045;-65
2023/03/19 07:26:47;;;;;;;6.07;1.70;;;;;;;;;;5018972;28;20044;-66
2023/03/19 07:29:13;;;;;;;2.72;1.45;;;;;;;;;;5026990;28;20029;-64
2023/03/19 07:31:39;;;;;;;6.95;1.83;;;;;;;;;;5018142;28;20029;-65
2023/03/19 07:34:06;;;;;;;7.43;1.55;;;;;;;;;;5009011;28;20495;-65
2023/03/19 07:36:32;;;;;;;9.45;1.77;;;;;;;;;;5026137;28;20033;-65
2023/03/19 07:38:58;;;;;;;2.90;1.33;;;;;;;;;;5020562;28;20037;-64
2023/03/19 07:41:24;;;;;;;8.93;1.40;;;;;;;;;;5029722;28;20379;-65
2023/03/19 07:43:50;;;;;;;7.00;1.48;;;;;;;;;;5014083;28;20040;-64
2023/03/19 07:46:16;;;;;;;3.28;1.05;;;;;;;;;;5014431;28;20128;-65
2023/03/19 07:48:42;;;;;;;6.50;1.48;;;;;;;;;;5012656;28;20029;-65
2023/03/19 07:51:09;;;;;;;9.05;1.48;;;;;;;;;;5012746;28;20010;-63
2023/03/19 07:53:35;;;;;;;8.15;1.67;;;;;;;;;;5014200;28;20096;-63
2023/03/19 07:56:01;;;;;;;2.42;1.17;;;;;;;;;;5013194;28;20026;-62
2023/03/19 07:58:27;;;;;;;8.50;1.40;;;;;;;;;;5014448;28;20025;-63
2023/03/19 08:00:54;;;;;;;9.65;1.65;;;;;;;;;;5013897;28;20050;-65
2023/03/19 08:03:20;;;;;;;5.95;1.48;;;;;;;;;;4999761;28;20089;-64
2023/03/19 08:05:50;;;;;;;6.13;1.48;;;;;;;;;;4994390;28;20065;-62
2023/03/19 08:08:16;;;;;;;7.18;1.40;;;;;;;;;;5000000;28;20058;-66
2023/03/19 08:10:43;;;;;;;8.43;1.85;;;;;;;;;;5002573;28;20029;-62
2023/03/19 08:13:09;;;;;;;5.35;1.70;;;;;;;;;;5003085;28;20022;-63
2023/03/19 08:15:35;;;;;;;10.02;1.30;;;;;;;;;;5006558;28;20068;-62
2023/03/19 08:18:02;;;;;;;14.05;2.30;;;;;;;;;;5013481;28;20360;-62
2023/03/19 08:20:29;;;;;;;6.72;1.15;;;;;;;;;;5012775;28;20094;-63
2023/03/19 08:22:56;;;;;;;7.82;1.60;;;;;;;;;;5013747;28;20429;-63
2023/03/19 08:25:24;;;;;;;8.50;1.60;;;;;;;;;;5013564;28;20119;-60
2023/03/19 08:27:50;;;;;;;8.05;1.65;;;;;;;;;;5013592;28;20037;-65
2023/03/19 08:30:16;;;;;;;3.80;1.40;;;;;;;;;;5013494;28;20084;-66
2023/03/19 08:32:48;;;;;;;6.43;1.23;;;;;;;;;;5013322;28;20022;-66
2023/03/19 08:35:14;;;;;;;5.23;1.40;;;;;;;;;;5012245;28;20457;-66
2023/03/19 08:37:40;;;;;;;7.57;1.17;;;;;;;;;;5013450;28;20060;-65
2023/03/19 08:40:07;;;;;;;12.70;1.98;;;;;;;;;;5013355;28;20061;-65
2023/03/19 08:42:33;;;;;;;9.02;2.22;;;;;;;;;;5013098;28;20057;-67
2023/03/19 08:44:59;;;;;;;7.22;1.40;;;;;;;;;;5012907;28;20030;-68
2023/03/19 08:47:26;;;;;;;8.57;1.55;;;;;;;;;;5013153;28;20514;-68
2023/03/19 08:49:52;;;;;;;6.63;1.27;;;;;;;;;;5013048;28;20391;-68
2023/03/19 08:52:19;;;;;;;6.63;1.73;;;;;;;;;;5016668;28;20033;-68
2023/03/19 08:54:45;;;;;;;8.00;1.40;;;;;;;;;;4993654;28;20018;-65
2023/03/19 08:57:11;;;;;;;5.43;1.30;;;;;;;;;;5009517;28;20030;-66
2023/03/19 08:59:37;;;;;;;9.82;1.45;;;;;;;;;;5012929;28;20497;-66
2023/03/19 09:02:04;;;;;;;6.30;1.33;;;;;;;;;;5012677;28;20050;-67
2023/03/19 09:04:30;;;;;;;2.35;1.20;;;;;;;;;;5013064;28;20045;-67
2023/03/19 09:06:56;;;;;;;4.00;1.33;;;;;;;;;;5012137;28;20022;-67
2023/03/19 09:09:23;;;;;;;5.10;1.27;;;;;;;;;;5012782;28;20034;-68
2023/03/19 09:11:49;;;;;;;3.17;1.10;;;;;;;;;;5011598;28;20032;-67
2023/03/19 09:14:16;;;;;;;6.32;1.30;;;;;;;;;;5012689;28;20025;-67
2023/03/19 09:16:43;;;;;;;7.00;1.63;;;;;;;;;;5012718;28;20390;-67
2023/03/19 09:19:09;;;;;;;6.60;1.33;;;;;;;;;;5012782;28;20037;-67
2023/03/19 09:21:36;;;;;;;4.60;1.48;;;;;;;;;;5011740;28;20022;-67
2023/03/19 09:24:02;;;;;;;8.00;1.50;;;;;;;;;;5011250;28;20042;-67
2023/03/19 09:26:28;;;;;;;12.32;2.20;;;;;;;;;;5002210;28;20383;-66
2023/03/19 09:28:55;;;;;;;7.97;1.25;;;;;;;;;;5011484;28;20108;-67
2023/03/19 09:31:21;;;;;;;6.50;1.73;;;;;;;;;;5012542;28;20044;-67
2023/03/19 09:33:47;;;;;;;9.15;1.63;;;;;;;;;;5012418;28;20041;-66
2023/03/19 09:36:13;;;;;;;8.43;1.90;;;;;;;;;;5012525;28;20025;-67
2023/03/19 09:38:39;;;;;;;9.18;1.65;;;;;;;;;;5010852;28;20053;-69
2023/03/19 09:41:20;;;;;;;5.47;1.10;;;;;;;;;;5011607;28;20022;-67
2023/03/19 09:43:49;;;;;;;5.15;1.23;;;;;;;;;;5010718;28;20089;-68
2023/03/19 09:46:19;;;;;;;7.93;2.25;;;;;;;;;;5011740;28;20061;-66
2023/03/19 09:48:49;;;;;;;5.13;1.30;;;;;;;;;;5012036;28;20030;-68
2023/03/19 09:51:19;;;;;;;3.25;1.30;;;;;;;;;;5011779;28;20035;-68
2023/03/19 09:53:57;;;;;;;7.72;1.52;;;;;;;;;;5010701;28;20029;-68
2023/03/19 09:56:24;;;;;;;7.32;1.35;;;;;;;;;;5010671;28;20079;-67
2023/03/19 09:58:51;;;;;;;5.82;1.10;;;;;;;;;;5010984;28;20022;-67
2023/03/19 10:01:37;;;;;;;10.00;1.65;;;;;;;;;;5007582;28;20121;-69
2023/03/19 10:04:15;;;;;;;5.80;1.70;;;;;;;;;;4991876;28;20038;-68
2023/03/19 10:06:42;;;;;;;4.13;1.15;;;;;;;;;;4992309;28;20025;-66
2023/03/19 10:09:25;;;;;;;9.68;1.40;;;;;;;;;;4992227;28;20026;-68
2023/03/19 10:11:56;;;;;;;8.10;1.17;;;;;;;;;;4990801;28;20030;-69
2023/03/19 10:14:41;;;;;;;5.18;1.13;;;;;;;;;;4997353;28;20022;-68
2023/03/19 10:17:09;;;;;;;6.80;1.20;;;;;;;;;;5009903;28;20030;-68
2023/03/19 10:19:39;;;;;;;10.50;1.63;;;;;;;;;;5009702;28;20402;-65
2023/03/19 10:22:07;;;;;;;3.72;0.98;;;;;;;;;;5011206;28;20049;-65
2023/03/19 10:24:44;;;;;;;7.57;2.17;;;;;;;;;;5011416;28;20030;-66
2023/03/19 10:27:15;;;;;;;10.27;1.80;;;;;;;;;;5011387;28;20037;-66
2023/03/19 10:29:41;;;;;;;3.72;1.13;;;;;;;;;;5010516;28;20026;-67
2023/03/19 10:32:17;;;;;;;5.80;1.30;;;;;;;;;;5011369;28;20072;-69
2023/03/19 10:34:44;;;;;;;6.80;1.45;;;;;;;;;;5009433;28;20014;-70
2023/03/19 10:37:13;;;;;;;9.05;1.05;;;;;;;;;;5011493;28;20034;-71
2023/03/19 10:39:41;;;;;;;2.50;1.08;;;;;;;;;;5011467;28;20026;-71
2023/03/19 10:42:31;;;;;;;3.05;0.98;;;;;;;;;;5010449;28;20673;-71
2023/03/19 10:45:00;;;;;;;3.85;0.88;;;;;;;;;;5011262;28;20026;-73
2023/03/19 10:47:26;;;;;;;9.82;2.42;;;;;;;;;;5009496;28;20512;-74
2023/03/19 10:49:53;;;;;;;7.13;0.90;;;;;;;;;;5009485;28;20101;-69
2023/03/19 10:52:26;;;;;;;4.63;0.98;;;;;;;;;;5010352;28;20122;-71
2023/03/19 10:54:56;;;;;;;6.65;1.10;;;;;;;;;;5010751;28;20110;-72
2023/03/19 10:57:25;;;;;;;4.35;1.20;;;;;;;;;;5010884;28;20018;-67
2023/03/19 10:59:51;;;;;;;6.93;1.05;;;;;;;;;;5014954;28;20479;-71
2023/03/19 11:02:18;;;;;;;2.28;0.70;;;;;;;;;;5014739;28;20060;-70
2023/03/19 11:04:45;;;;;;;6.30;1.17;;;;;;;;;;5013295;28;20398;-70
2023/03/19 11:07:13;;;;;;;4.40;0.70;;;;;;;;;;5015082;28;20091;-71
2023/03/19 11:09:44;;;;;;;2.30;0.65;;;;;;;;;;5013711;28;20486;-68
2023/03/19 11:12:22;;;;;;;2.33;0.65;;;;;;;;;;5014600;28;20037;-67
2023/03/19 11:14:51;;;;;;;3.92;0.95;;;;;;;;;;5013977;28;20391;-68
2023/03/19 11:17:17;;;;;;;1.65;0.85;;;;;;;;;;5014506;28;20030;-66
2023/03/19 11:19:50;;;;;;;4.15;0.70;;;;;;;;;;5014939;28;20025;-68
2023/03/19 11:22:19;;;;;;;4.68;1.30;;;;;;;;;;5028925;28;20498;-70
2023/03/19 11:24:54;;;;;;;3.63;1.45;;;;;;;;;;5034544;28;20038;-69
2023/03/19 11:27:33;;;;;;;2.58;0.90;;;;;;;;;;5020357;28;20429;-73
2023/03/19 11:29:59;;;;;;;5.72;0.98;;;;;;;;;;5014720;28;20076;-72
2023/03/19 11:32:28;;;;;;;6.22;1.30;;;;;;;;;;5013746;28;20033;-73
2023/03/19 11:35:00;;;;;;;9.55;1.10;;;;;;;;;;5014612;28;20517;-73
2023/03/19 11:37:27;;;;;;;5.57;1.00;;;;;;;;;;5013349;28;20053;-73
2023/03/19 11:40:02;;;;;;;3.92;1.17;;;;;;;;;;5014252;28;20498;-74
2023/03/19 11:42:28;;;;;;;6.95;1.38;;;;;;;;;;5014588;28;20478;-73
2023/03/19 11:45:13;;;;;;;2.78;1.10;;;;;;;;;;5014427;28;20041;-73
2023/03/19 11:47:57;;;;;;;5.28;1.15;;;;;;;;;;5013417;28;20055;-73
2023/03/19 11:50:23;;;;;;;1.90;1.10;;;;;;;;;;4993201;28;20492;-73
2023/03/19 11:52:55;;;;;;;9.15;1.08;;;;;;;;;;4994570;28;20050;-73
2023/03/19 11:55:22;;;;;;;5.50;0.90;;;;;;;;;;4994642;28;20054;-71
2023/03/19 11:58:07;;;;;;;3.25;1.00;;;;;;;;;;4994511;28;20418;-73
2023/03/19 12:00:41;;;;;;;2.40;0.85;;;;;;;;;;4994097;28;20495;-74
2023/03/19 12:03:07;;;;;;;4.38;1.15;;;;;;;;;;4993171;28;20411;-74
2023/03/19 12:05:39;;;;;;;3.80;0.98;;;;;;;;;;5004443;28;20034;-73
2023/03/19 12:08:10;;;;;;;3.10;0.93;;;;;;;;;;5011994;28;20026;-74
2023/03/19 12:10:42;;;;;;;2.10;0.88;;;;;;;;;;5009685;28;20108;-73
2023/03/19 12:13:11;;;;;;;4.53;0.80;;;;;;;;;;5012023;28;20364;-73
2023/03/19 12:15:55;;;;;;;4.75;0.90;;;;;;;;;;5011973;28;20049;-73
2023/03/19 12:18:32;;;;;;;2.58;1.20;;;;;;;;;;5011796;28;20055;-74
2023/03/19 12:21:01;;;;;;;2.55;0.93;;;;;;;;;;5010785;28;20033;-73
2023/03/19 12:23:30;;;;;;;5.00;1.10;;;;;;;;;;5011045;28;20153;-72
2023/03/19 12:26:04;;;;;;;4.20;1.23;;;;;;;;;;5011622;28;20037;-73
2023/03/19 12:28:32;;;;;;;2.45;1.20;;;;;;;;;;5011771;28;20109;-74
2023/03/19 12:30:59;;;;;;;1.55;0.93;;;;;;;;;;5011547;28;20018;-74
2023/03/19 12:33:37;;;;;;;1.95;1.00;;;;;;;;;;5013198;28;20080;-74
2023/03/19 12:36:07;;;;;;;3.45;1.27;;;;;;;;;;5013552;28;20041;-74
2023/03/19 12:38:41;;;;;;;3.63;1.35;;;;;;;;;;5012303;28;20910;-75
2023/03/19 12:41:11;;;;;;;2.25;0.68;;;;;;;;;;5013196;28;20080;-73
2023/03/19 12:43:37;;;;;;;3.22;1.10;;;;;;;;;;5012991;28;20034;-74
2023/03/19 12:46:09;;;;;;;3.95;1.00;;;;;;;;;;5013263;28;20026;-73
2023/03/19 12:48:40;;;;;;;4.95;1.10;;;;;;;;;;5013095;28;20030;-74
2023/03/19 12:51:09;;;;;;;1.60;0.80;;;;;;;;;;5011880;28;20064;-74
2023/03/19 12:53:51;;;;;;;1.52;0.93;;;;;;;;;;5012449;28;20275;-73
2023/03/19 12:56:20;;;;;;;5.07;1.10;;;;;;;;;;5013118;28;20434;-73
2023/03/19 12:58:51;;;;;;;4.03;1.00;;;;;;;;;;5012980;28;20088;-73
2023/03/19 13:01:21;;;;;;;1.37;0.70;;;;;;;;;;5012679;28;20026;-73
2023/03/19 13:03:47;;;;;;;0.82;0.70;;;;;;;;;;5012988;28;20121;-73
2023/03/19 13:06:17;;;;;;;2.05;0.88;;;;;;;;;;5012859;28;20097;-73
2023/03/19 13:08:52;;;;;;;0.85;0.60;;;;;;;;;;5013000;28;20653;-73
2023/03/19 13:11:31;;;;;;;1.02;0.70;;;;;;;;;;5011941;28;20033;-72
2023/03/19 13:14:03;;;;;;;2.15;0.80;;;;;;;;;;5012668;28;20471;-73
2023/03/19 13:16:33;;;;;;;0.80;0.70;;;;;;;;;;5012677;28;20482;-72
2023/03/19 13:18:59;;;;;;;1.85;0.70;;;;;;;;;;5012371;28;20109;-72
2023/03/19 13:21:30;;;;;;;2.15;0.88;;;;;;;;;;5010866;28;20399;-75
2023/03/19 13:24:04;;;;;;;2.65;0.88;;;;;;;;;;5011013;28;20113;-73
2023/03/19 13:26:31;;;;;;;3.45;0.80;;;;;;;;;;5012436;28;20026;-73
2023/03/19 13:29:06;;;;;;;1.85;0.70;;;;;;;;;;5011479;28;20022;-72
2023/03/19 13:31:36;;;;;;;1.08;0.68;;;;;;;;;;5012432;28;20056;-72
2023/03/19 13:34:02;;;;;;;2.25;0.80;;;;;;;;;;5011787;28;20028;-73
2023/03/19 13:36:29;;;;;;;1.52;0.63;;;;;;;;;;5012146;28;20509;-69
2023/03/19 13:38:57;;;;;;;1.67;0.80;;;;;;;;;;5012212;28;20049;-72
2023/03/19 13:41:28;;;;;;;3.33;0.70;;;;;;;;;;5012136;28;20048;-71
2023/03/19 13:43:55;;;;;;;1.55;0.70;;;;;;;;;;5012250;28;20046;-72
2023/03/19 13:46:21;;;;;;;3.92;0.80;;;;;;;;;;5010998;28;20083;-71
2023/03/19 13:48:47;;;;;;;1.30;0.70;;;;;;;;;;5011074;28;20022;-72
2023/03/19 13:51:20;;;;;;;5.55;1.00;;;;;;;;;;5011911;28;20491;-72
2023/03/19 13:54:07;;;;;;;1.98;1.02;;;;;;;;;;5011859;28;20022;-71
2023/03/19 13:56:53;;;;;;;2.67;0.80;;;;;;;;;;5011897;28;20390;-71
2023/03/19 13:59:26;;;;;;;4.22;0.80;;;;;;;;;;5011757;28;20033;-72
2023/03/19 14:01:53;;;;;;;1.70;0.63;;;;;;;;;;5011515;28;20053;-73
2023/03/19 14:04:29;;;;;;;2.60;0.70;;;;;;;;;;5011622;28;20050;-72
2023/03/19 14:07:07;;;;;;;2.90;0.85;;;;;;;;;;5010902;28;20030;-72
2023/03/19 14:09:34;;;;;;;1.65;0.60;;;;;;;;;;5011721;28;20059;-71
2023/03/19 14:12:12;;;;;;;1.85;0.80;;;;;;;;;;5011642;28;20028;-72
2023/03/19 14:14:40;;;;;;;2.75;0.50;;;;;;;;;;5011191;28;20026;-72
2023/03/19 14:17:13;;;;;;;2.58;0.70;;;;;;;;;;5009890;28;20022;-71
2023/03/19 14:19:42;;;;;;;2.53;0.63;;;;;;;;;;5011040;28;20034;-71
2023/03/19 14:22:10;;;;;;;2.10;0.70;;;;;;;;;;5011576;28;20022;-72
2023/03/19 14:24:40;;;;;;;0.80;0.60;;;;;;;;;;5010640;28;20084;-73
2023/03/19 14:27:25;;;;;;;3.35;0.80;;;;;;;;;;5011932;28;20030;-71
2023/03/19 14:29:53;;;;;;;4.00;0.70;;;;;;;;;;5009679;28;20628;-72
2023/03/19 14:32:21;;;;;;;2.30;0.63;;;;;;;;;;5011305;28;20029;-73
2023/03/19 14:34:48;;;;;;;1.38;0.70;;;;;;;;;;5011317;28;20616;-70
2023/03/19 14:37:35;;;;;;;2.33;1.10;;;;;;;;;;5010539;28;20026;-71
2023/03/19 14:40:01;;;;;;;0.75;0.60;;;;;;;;;;5011313;28;20050;-72
2023/03/19 14:42:41;;;;;;;0.90;0.57;;;;;;;;;;5009802;28;20494;-70
2023/03/19 14:45:12;;;;;;;1.35;1.05;;;;;;;;;;5020107;28;20033;-70
2023/03/19 14:48:02;;;;;;;1.00;0.65;;;;;;;;;;5030432;28;20021;-70